YPPD/PHE METAR and TAF weather

Enter ICAO airport designator
Station Type Date Time Source
YPPD METAR 2019/12/16 06:00 UTC NOAA

YPPD 160600Z AUTO 35016KT 9999 // ////// 35/23 Q1008


Station Type Date Time Source
YPPD Decoded METAR 2019/12/16 06:00 UTC NOAA

Port Hedland Pardoo, Australia (YPPD) 20-06S 119-34E 10M
Dec 16, 2019 - 01:00 AM EST / 2019.12.16 0600 UTC
Wind: from the N (350 degrees) at 18 MPH (16 KT):0
Visibility: greater than 7 mile(s):0
Temperature: 95 F (35 C)
Heat index: 104.5 F (40.3 C):1
Dew Point: 73 F (23 C)
Relative Humidity: 49%
Pressure (altimeter): 29.77 in. Hg (1008 hPa)
ob: YPPD 160600Z AUTO 35016KT 9999 // ////// 35/23 Q1008
cycle: 6

Station Type Date Time Source
YPPD TAF 2019/12/16 06:36 UTC NOAA

TAF YPPD 160456Z 1606/1706 32014KT CAVOK
FM161400 30008KT CAVOK
FM161600 VRB05KT CAVOK
FM170300 32014KT CAVOK

Example: see airport list